sensor_id;sensor_type;location;lat;lon;timestamp;pressure;altitude;pressure_sealevel;temperature;humidity
25722;BME280;13578;53.450;15.496;2024-02-26T00:02:33;98729.31;;;2.56;100.00
25722;BME280;13578;53.450;15.496;2024-02-26T00:05:38;98733.84;;;2.56;100.00
25722;BME280;13578;53.450;15.496;2024-02-26T00:08:39;98738.88;;;2.49;100.00
25722;BME280;13578;53.450;15.496;2024-02-26T00:11:40;98722.78;;;2.34;100.00
25722;BME280;13578;53.450;15.496;2024-02-26T00:14:40;98719.75;;;2.26;100.00
25722;BME280;13578;53.450;15.496;2024-02-26T00:17:41;98715.19;;;2.27;100.00
25722;BME280;13578;53.450;15.496;2024-02-26T00:20:42;98706.69;;;2.20;100.00
25722;BME280;13578;53.450;15.496;2024-02-26T00:23:43;98721.03;;;2.33;100.00
25722;BME280;13578;53.450;15.496;2024-02-26T00:26:44;98710.22;;;2.20;100.00
25722;BME280;13578;53.450;15.496;2024-02-26T00:29:44;98715.13;;;2.02;100.00
25722;BME280;13578;53.450;15.496;2024-02-26T00:32:45;98707.34;;;1.98;100.00
25722;BME280;13578;53.450;15.496;2024-02-26T00:35:45;98694.47;;;1.88;100.00
25722;BME280;13578;53.450;15.496;2024-02-26T00:38:46;98708.44;;;1.82;100.00
25722;BME280;13578;53.450;15.496;2024-02-26T00:41:51;98694.06;;;1.82;100.00
25722;BME280;13578;53.450;15.496;2024-02-26T00:48:48;98697.09;;;1.90;100.00
25722;BME280;13578;53.450;15.496;2024-02-26T00:51:49;98694.91;;;1.95;100.00
25722;BME280;13578;53.450;15.496;2024-02-26T00:54:49;98698.47;;;1.96;100.00
25722;BME280;13578;53.450;15.496;2024-02-26T00:57:50;98692.22;;;1.95;100.00
25722;BME280;13578;53.450;15.496;2024-02-26T01:00:51;98692.00;;;1.98;100.00
25722;BME280;13578;53.450;15.496;2024-02-26T01:03:51;98694.72;;;1.85;100.00
25722;BME280;13578;53.450;15.496;2024-02-26T01:06:52;98705.09;;;1.79;100.00
25722;BME280;13578;53.450;15.496;2024-02-26T01:09:53;98702.94;;;1.58;100.00
25722;BME280;13578;53.450;15.496;2024-02-26T01:12:53;98707.81;;;1.53;100.00
25722;BME280;13578;53.450;15.496;2024-02-26T01:15:54;98707.94;;;1.38;100.00
25722;BME280;13578;53.450;15.496;2024-02-26T01:18:54;98698.84;;;1.39;100.00
25722;BME280;13578;53.450;15.496;2024-02-26T01:21:55;98706.16;;;1.24;100.00
25722;BME280;13578;53.450;15.496;2024-02-26T01:24:56;98709.19;;;1.20;100.00
25722;BME280;13578;53.450;15.496;2024-02-26T01:27:57;98706.25;;;1.10;100.00
25722;BME280;13578;53.450;15.496;2024-02-26T01:30:57;98700.16;;;0.93;100.00
25722;BME280;13578;53.450;15.496;2024-02-26T01:33:58;98702.44;;;1.00;100.00
25722;BME280;13578;53.450;15.496;2024-02-26T01:36:59;98702.25;;;1.03;100.00
25722;BME280;13578;53.450;15.496;2024-02-26T01:40:01;98699.34;;;1.06;100.00
25722;BME280;13578;53.450;15.496;2024-02-26T01:43:04;98700.97;;;1.08;100.00
25722;BME280;13578;53.450;15.496;2024-02-26T01:46:04;98697.50;;;1.06;100.00
25722;BME280;13578;53.450;15.496;2024-02-26T01:49:06;98702.69;;;1.09;100.00
25722;BME280;13578;53.450;15.496;2024-02-26T01:52:09;98698.25;;;1.08;100.00
25722;BME280;13578;53.450;15.496;2024-02-26T01:55:11;98691.13;;;1.07;100.00
25722;BME280;13578;53.450;15.496;2024-02-26T01:58:12;98697.94;;;1.13;100.00
25722;BME280;13578;53.450;15.496;2024-02-26T02:01:15;98688.53;;;1.19;100.00
25722;BME280;13578;53.450;15.496;2024-02-26T02:04:16;98688.19;;;1.10;100.00
25722;BME280;13578;53.450;15.496;2024-02-26T02:07:18;98689.03;;;0.98;100.00
25722;BME280;13578;53.450;15.496;2024-02-26T02:10:19;98686.13;;;1.14;100.00
25722;BME280;13578;53.450;15.496;2024-02-26T02:13:23;98691.13;;;1.07;100.00
25722;BME280;13578;53.450;15.496;2024-02-26T02:16:24;98691.44;;;1.03;100.00
25722;BME280;13578;53.450;15.496;2024-02-26T02:19:25;98690.44;;;0.91;100.00
25722;BME280;13578;53.450;15.496;2024-02-26T02:22:25;98678.97;;;0.87;100.00
25722;BME280;13578;53.450;15.496;2024-02-26T02:25:26;98689.47;;;0.92;100.00
25722;BME280;13578;53.450;15.496;2024-02-26T02:28:27;98680.56;;;0.77;100.00
25722;BME280;13578;53.450;15.496;2024-02-26T02:31:28;98681.13;;;0.82;100.00
25722;BME280;13578;53.450;15.496;2024-02-26T02:34:29;98681.31;;;0.66;100.00
25722;BME280;13578;53.450;15.496;2024-02-26T02:37:30;98680.53;;;0.64;100.00
25722;BME280;13578;53.450;15.496;2024-02-26T02:40:31;98680.28;;;0.54;100.00
25722;BME280;13578;53.450;15.496;2024-02-26T02:43:31;98679.41;;;0.54;100.00
25722;BME280;13578;53.450;15.496;2024-02-26T02:46:32;98680.88;;;0.45;100.00
25722;BME280;13578;53.450;15.496;2024-02-26T02:49:34;98677.31;;;0.44;100.00
25722;BME280;13578;53.450;15.496;2024-02-26T02:52:34;98680.00;;;0.44;100.00
25722;BME280;13578;53.450;15.496;2024-02-26T02:55:35;98686.72;;;0.52;100.00
25722;BME280;13578;53.450;15.496;2024-02-26T02:58:36;98686.53;;;0.55;100.00
25722;BME280;13578;53.450;15.496;2024-02-26T03:01:36;98686.53;;;0.55;100.00
25722;BME280;13578;53.450;15.496;2024-02-26T03:04:37;98685.03;;;0.51;100.00
25722;BME280;13578;53.450;15.496;2024-02-26T03:07:38;98689.09;;;0.43;100.00
25722;BME280;13578;53.450;15.496;2024-02-26T03:10:39;98683.06;;;0.53;100.00
25722;BME280;13578;53.450;15.496;2024-02-26T03:13:39;98689.41;;;0.66;100.00
25722;BME280;13578;53.450;15.496;2024-02-26T03:16:40;98688.47;;;0.53;100.00
25722;BME280;13578;53.450;15.496;2024-02-26T03:19:41;98682.47;;;0.62;100.00
25722;BME280;13578;53.450;15.496;2024-02-26T03:22:41;98699.56;;;0.48;100.00
25722;BME280;13578;53.450;15.496;2024-02-26T03:25:44;98692.13;;;0.52;100.00
25722;BME280;13578;53.450;15.496;2024-02-26T03:28:46;98694.94;;;0.50;100.00
25722;BME280;13578;53.450;15.496;2024-02-26T03:31:46;98696.06;;;0.60;100.00
25722;BME280;13578;53.450;15.496;2024-02-26T03:34:47;98693.69;;;0.56;100.00
25722;BME280;13578;53.450;15.496;2024-02-26T03:37:48;98687.25;;;0.44;100.00
25722;BME280;13578;53.450;15.496;2024-02-26T03:40:50;98698.41;;;0.52;100.00
25722;BME280;13578;53.450;15.496;2024-02-26T03:43:51;98704.56;;;0.27;100.00
25722;BME280;13578;53.450;15.496;2024-02-26T03:46:52;98699.13;;;0.41;100.00
25722;BME280;13578;53.450;15.496;2024-02-26T03:49:52;98716.09;;;0.43;100.00
25722;BME280;13578;53.450;15.496;2024-02-26T03:52:53;98715.66;;;0.22;100.00
25722;BME280;13578;53.450;15.496;2024-02-26T03:55:54;98712.88;;;0.09;100.00
25722;BME280;13578;53.450;15.496;2024-02-26T03:58:55;98707.19;;;-0.01;100.00
25722;BME280;13578;53.450;15.496;2024-02-26T04:01:56;98711.63;;;0.01;100.00
25722;BME280;13578;53.450;15.496;2024-02-26T04:04:57;98714.03;;;0.20;100.00
25722;BME280;13578;53.450;15.496;2024-02-26T04:07:57;98713.13;;;0.19;100.00
25722;BME280;13578;53.450;15.496;2024-02-26T04:10:58;98724.53;;;0.10;100.00
25722;BME280;13578;53.450;15.496;2024-02-26T04:13:59;98717.53;;;0.07;100.00
25722;BME280;13578;53.450;15.496;2024-02-26T04:16:59;98718.25;;;0.09;100.00
25722;BME280;13578;53.450;15.496;2024-02-26T04:20:00;98718.47;;;0.06;100.00
25722;BME280;13578;53.450;15.496;2024-02-26T04:23:03;98711.34;;;0.05;100.00
25722;BME280;13578;53.450;15.496;2024-02-26T04:26:04;98716.53;;;0.08;100.00
25722;BME280;13578;53.450;15.496;2024-02-26T04:29:05;98708.66;;;-0.09;100.00
25722;BME280;13578;53.450;15.496;2024-02-26T04:32:06;98720.41;;;0.04;100.00
25722;BME280;13578;53.450;15.496;2024-02-26T04:35:07;98710.84;;;-0.02;100.00
25722;BME280;13578;53.450;15.496;2024-02-26T04:38:07;98729.28;;;-0.08;100.00
25722;BME280;13578;53.450;15.496;2024-02-26T04:41:08;98724.28;;;0.00;100.00
25722;BME280;13578;53.450;15.496;2024-02-26T04:44:09;98727.94;;;-0.01;100.00
25722;BME280;13578;53.450;15.496;2024-02-26T04:47:10;98740.75;;;-0.05;100.00
25722;BME280;13578;53.450;15.496;2024-02-26T04:50:11;98746.44;;;-0.09;100.00
25722;BME280;13578;53.450;15.496;2024-02-26T04:53:11;98744.00;;;-0.14;100.00
25722;BME280;13578;53.450;15.496;2024-02-26T04:56:12;98747.66;;;-0.15;100.00
25722;BME280;13578;53.450;15.496;2024-02-26T04:59:13;98747.00;;;-0.19;100.00
25722;BME280;13578;53.450;15.496;2024-02-26T05:02:14;98747.56;;;-0.28;100.00
25722;BME280;13578;53.450;15.496;2024-02-26T05:05:14;98749.31;;;-0.27;100.00
25722;BME280;13578;53.450;15.496;2024-02-26T05:08:15;98755.88;;;-0.17;100.00
25722;BME280;13578;53.450;15.496;2024-02-26T05:11:16;98763.28;;;-0.20;100.00
25722;BME280;13578;53.450;15.496;2024-02-26T05:14:18;98753.72;;;-0.26;100.00
25722;BME280;13578;53.450;15.496;2024-02-26T05:17:19;98757.59;;;-0.30;100.00
25722;BME280;13578;53.450;15.496;2024-02-26T05:20:19;98767.91;;;-0.22;100.00
25722;BME280;13578;53.450;15.496;2024-02-26T05:23:20;98771.09;;;-0.30;100.00
25722;BME280;13578;53.450;15.496;2024-02-26T05:26:22;98770.69;;;-0.24;100.00
25722;BME280;13578;53.450;15.496;2024-02-26T05:29:23;98779.06;;;-0.28;100.00
25722;BME280;13578;53.450;15.496;2024-02-26T05:32:23;98783.13;;;-0.21;100.00
25722;BME280;13578;53.450;15.496;2024-02-26T05:35:25;98774.34;;;-0.10;100.00
25722;BME280;13578;53.450;15.496;2024-02-26T05:38:26;98779.34;;;-0.19;100.00
25722;BME280;13578;53.450;15.496;2024-02-26T05:41:26;98777.84;;;-0.08;100.00
25722;BME280;13578;53.450;15.496;2024-02-26T05:44:27;98779.19;;;-0.15;100.00
25722;BME280;13578;53.450;15.496;2024-02-26T05:47:28;98778.31;;;-0.02;100.00
25722;BME280;13578;53.450;15.496;2024-02-26T05:50:28;98773.56;;;0.02;100.00
25722;BME280;13578;53.450;15.496;2024-02-26T05:53:29;98787.00;;;0.04;100.00
25722;BME280;13578;53.450;15.496;2024-02-26T05:56:30;98785.72;;;0.09;100.00
25722;BME280;13578;53.450;15.496;2024-02-26T05:59:31;98782.03;;;0.25;100.00
25722;BME280;13578;53.450;15.496;2024-02-26T06:02:50;98777.28;;;0.43;100.00
25722;BME280;13578;53.450;15.496;2024-02-26T06:05:50;98790.63;;;0.31;100.00
25722;BME280;13578;53.450;15.496;2024-02-26T06:08:51;98789.66;;;0.33;100.00
25722;BME280;13578;53.450;15.496;2024-02-26T06:11:52;98784.72;;;0.39;100.00
25722;BME280;13578;53.450;15.496;2024-02-26T06:14:52;98781.91;;;0.41;100.00
25722;BME280;13578;53.450;15.496;2024-02-26T06:17:53;98787.81;;;0.47;100.00
25722;BME280;13578;53.450;15.496;2024-02-26T06:20:54;98794.44;;;0.42;100.00
25722;BME280;13578;53.450;15.496;2024-02-26T06:23:57;98795.53;;;0.39;100.00
25722;BME280;13578;53.450;15.496;2024-02-26T06:30:56;98806.19;;;0.55;100.00
25722;BME280;13578;53.450;15.496;2024-02-26T06:33:56;98809.38;;;0.62;100.00
25722;BME280;13578;53.450;15.496;2024-02-26T06:36:57;98812.94;;;0.62;100.00
25722;BME280;13578;53.450;15.496;2024-02-26T06:39:58;98808.66;;;0.73;100.00
25722;BME280;13578;53.450;15.496;2024-02-26T06:42:58;98814.75;;;0.76;100.00
25722;BME280;13578;53.450;15.496;2024-02-26T06:45:59;98820.50;;;0.85;100.00
25722;BME280;13578;53.450;15.496;2024-02-26T06:49:00;98832.84;;;0.89;100.00
25722;BME280;13578;53.450;15.496;2024-02-26T06:52:01;98833.19;;;0.97;100.00
25722;BME280;13578;53.450;15.496;2024-02-26T06:55:02;98832.59;;;1.06;100.00
25722;BME280;13578;53.450;15.496;2024-02-26T06:58:02;98828.81;;;1.09;100.00
25722;BME280;13578;53.450;15.496;2024-02-26T07:01:03;98829.50;;;1.13;100.00
25722;BME280;13578;53.450;15.496;2024-02-26T07:04:04;98831.22;;;1.14;100.00
25722;BME280;13578;53.450;15.496;2024-02-26T07:07:04;98820.31;;;1.15;100.00
25722;BME280;13578;53.450;15.496;2024-02-26T07:10:33;98827.69;;;1.26;100.00
25722;BME280;13578;53.450;15.496;2024-02-26T07:13:34;98827.84;;;1.37;100.00
25722;BME280;13578;53.450;15.496;2024-02-26T07:20:46;98827.34;;;1.58;100.00
25722;BME280;13578;53.450;15.496;2024-02-26T07:23:50;98820.75;;;1.62;100.00
25722;BME280;13578;53.450;15.496;2024-02-26T07:26:51;98827.91;;;1.76;100.00
25722;BME280;13578;53.450;15.496;2024-02-26T07:29:51;98830.66;;;1.89;100.00
25722;BME280;13578;53.450;15.496;2024-02-26T07:32:52;98836.16;;;2.00;100.00
25722;BME280;13578;53.450;15.496;2024-02-26T07:35:53;98833.91;;;2.07;100.00
25722;BME280;13578;53.450;15.496;2024-02-26T07:38:54;98827.19;;;2.13;100.00
25722;BME280;13578;53.450;15.496;2024-02-26T07:41:54;98835.94;;;2.29;100.00
25722;BME280;13578;53.450;15.496;2024-02-26T07:44:55;98835.81;;;2.44;100.00
25722;BME280;13578;53.450;15.496;2024-02-26T07:47:59;98836.56;;;2.59;100.00
25722;BME280;13578;53.450;15.496;2024-02-26T07:55:11;98851.94;;;3.08;100.00
25722;BME280;13578;53.450;15.496;2024-02-26T07:58:36;98851.25;;;3.17;100.00
25722;BME280;13578;53.450;15.496;2024-02-26T08:01:37;98855.13;;;3.26;100.00
25722;BME280;13578;53.450;15.496;2024-02-26T08:04:54;98861.88;;;3.45;100.00
25722;BME280;13578;53.450;15.496;2024-02-26T08:11:51;98873.56;;;3.70;100.00
25722;BME280;13578;53.450;15.496;2024-02-26T08:14:52;98878.41;;;3.77;100.00
25722;BME280;13578;53.450;15.496;2024-02-26T08:17:53;98883.88;;;3.89;100.00
25722;BME280;13578;53.450;15.496;2024-02-26T08:20:54;98879.47;;;3.99;100.00
25722;BME280;13578;53.450;15.496;2024-02-26T08:23:55;98880.88;;;4.16;100.00
25722;BME280;13578;53.450;15.496;2024-02-26T08:26:56;98889.16;;;4.26;100.00
25722;BME280;13578;53.450;15.496;2024-02-26T08:30:00;98891.38;;;4.32;100.00
25722;BME280;13578;53.450;15.496;2024-02-26T08:36:57;98889.06;;;4.50;100.00
25722;BME280;13578;53.450;15.496;2024-02-26T08:40:03;98886.09;;;4.65;100.00
25722;BME280;13578;53.450;15.496;2024-02-26T08:43:04;98887.34;;;4.72;100.00
25722;BME280;13578;53.450;15.496;2024-02-26T08:50:26;98890.69;;;4.98;100.00
25722;BME280;13578;53.450;15.496;2024-02-26T08:53:27;98890.06;;;5.06;100.00
25722;BME280;13578;53.450;15.496;2024-02-26T09:04:08;98886.50;;;5.49;100.00
25722;BME280;13578;53.450;15.496;2024-02-26T09:07:09;98895.06;;;5.45;100.00
25722;BME280;13578;53.450;15.496;2024-02-26T09:10:09;98903.91;;;5.58;100.00
25722;BME280;13578;53.450;15.496;2024-02-26T09:13:22;98903.88;;;5.69;100.00
25722;BME280;13578;53.450;15.496;2024-02-26T09:16:24;98907.16;;;5.84;100.00
25722;BME280;13578;53.450;15.496;2024-02-26T09:19:26;98912.09;;;5.91;100.00
25722;BME280;13578;53.450;15.496;2024-02-26T09:22:28;98924.09;;;5.99;100.00
25722;BME280;13578;53.450;15.496;2024-02-26T09:25:28;98924.19;;;6.09;100.00
25722;BME280;13578;53.450;15.496;2024-02-26T09:28:29;98928.81;;;6.18;100.00
25722;BME280;13578;53.450;15.496;2024-02-26T09:31:32;98934.16;;;6.20;100.00
25722;BME280;13578;53.450;15.496;2024-02-26T09:34:34;98936.88;;;6.41;100.00
25722;BME280;13578;53.450;15.496;2024-02-26T09:37:35;98939.94;;;6.48;100.00
25722;BME280;13578;53.450;15.496;2024-02-26T09:40:37;98947.00;;;6.50;100.00
25722;BME280;13578;53.450;15.496;2024-02-26T09:43:38;98946.19;;;6.60;100.00
25722;BME280;13578;53.450;15.496;2024-02-26T09:46:42;98957.16;;;6.70;100.00
25722;BME280;13578;53.450;15.496;2024-02-26T09:49:45;98950.31;;;6.75;100.00
25722;BME280;13578;53.450;15.496;2024-02-26T09:52:59;98945.63;;;6.87;100.00
25722;BME280;13578;53.450;15.496;2024-02-26T09:59:48;98952.34;;;7.04;100.00
25722;BME280;13578;53.450;15.496;2024-02-26T10:02:51;98963.31;;;7.24;100.00
25722;BME280;13578;53.450;15.496;2024-02-26T10:05:57;98953.91;;;7.38;100.00
25722;BME280;13578;53.450;15.496;2024-02-26T10:09:00;98964.69;;;7.49;100.00
25722;BME280;13578;53.450;15.496;2024-02-26T10:12:00;98967.31;;;7.60;100.00
25722;BME280;13578;53.450;15.496;2024-02-26T10:19:30;98980.59;;;7.85;100.00
25722;BME280;13578;53.450;15.496;2024-02-26T10:22:32;98984.50;;;8.02;100.00
25722;BME280;13578;53.450;15.496;2024-02-26T10:25:32;98989.41;;;8.08;100.00
25722;BME280;13578;53.450;15.496;2024-02-26T10:28:33;98982.06;;;8.08;100.00
25722;BME280;13578;53.450;15.496;2024-02-26T10:31:33;98985.81;;;8.27;100.00
25722;BME280;13578;53.450;15.496;2024-02-26T10:34:37;98999.91;;;8.42;100.00
25722;BME280;13578;53.450;15.496;2024-02-26T10:37:42;98996.16;;;8.43;100.00
25722;BME280;13578;53.450;15.496;2024-02-26T10:40:42;98995.16;;;8.44;100.00
25722;BME280;13578;53.450;15.496;2024-02-26T10:43:43;99002.38;;;8.55;100.00
25722;BME280;13578;53.450;15.496;2024-02-26T10:46:46;98998.38;;;8.59;100.00
25722;BME280;13578;53.450;15.496;2024-02-26T10:49:48;99000.38;;;8.67;100.00
25722;BME280;13578;53.450;15.496;2024-02-26T10:52:50;98997.63;;;8.77;100.00
25722;BME280;13578;53.450;15.496;2024-02-26T10:55:57;99002.03;;;8.97;100.00
25722;BME280;13578;53.450;15.496;2024-02-26T10:58:59;98990.94;;;9.09;100.00
25722;BME280;13578;53.450;15.496;2024-02-26T11:02:00;98980.50;;;9.22;100.00
25722;BME280;13578;53.450;15.496;2024-02-26T11:05:05;98980.91;;;9.27;100.00
25722;BME280;13578;53.450;15.496;2024-02-26T11:08:06;98976.66;;;9.43;100.00
25722;BME280;13578;53.450;15.496;2024-02-26T11:11:07;98972.75;;;9.45;100.00
25722;BME280;13578;53.450;15.496;2024-02-26T11:14:09;98976.44;;;9.64;100.00
25722;BME280;13578;53.450;15.496;2024-02-26T11:17:15;98969.44;;;9.69;100.00
25722;BME280;13578;53.450;15.496;2024-02-26T11:20:17;98964.31;;;9.66;100.00
25722;BME280;13578;53.450;15.496;2024-02-26T11:23:19;98957.47;;;9.70;100.00
25722;BME280;13578;53.450;15.496;2024-02-26T11:26:21;98965.50;;;9.82;100.00
25722;BME280;13578;53.450;15.496;2024-02-26T11:29:26;98963.72;;;9.91;100.00
25722;BME280;13578;53.450;15.496;2024-02-26T11:32:29;98967.41;;;9.99;100.00
25722;BME280;13578;53.450;15.496;2024-02-26T11:35:30;98970.56;;;10.05;100.00
25722;BME280;13578;53.450;15.496;2024-02-26T11:38:33;98951.28;;;10.14;100.00
25722;BME280;13578;53.450;15.496;2024-02-26T11:41:33;98938.59;;;10.13;100.00
25722;BME280;13578;53.450;15.496;2024-02-26T11:44:35;98930.53;;;10.12;100.00
25722;BME280;13578;53.450;15.496;2024-02-26T11:47:38;98958.16;;;10.18;100.00
25722;BME280;13578;53.450;15.496;2024-02-26T11:50:41;98952.53;;;10.20;100.00
25722;BME280;13578;53.450;15.496;2024-02-26T11:53:46;98949.09;;;10.18;100.00
25722;BME280;13578;53.450;15.496;2024-02-26T11:56:50;98927.78;;;10.12;100.00
25722;BME280;13578;53.450;15.496;2024-02-26T11:59:51;98922.06;;;10.05;100.00
25722;BME280;13578;53.450;15.496;2024-02-26T12:02:55;98937.75;;;10.13;100.00
25722;BME280;13578;53.450;15.496;2024-02-26T12:06:01;98940.47;;;10.13;100.00
25722;BME280;13578;53.450;15.496;2024-02-26T12:09:01;98944.47;;;10.18;100.00
25722;BME280;13578;53.450;15.496;2024-02-26T12:12:04;98950.34;;;10.24;100.00
25722;BME280;13578;53.450;15.496;2024-02-26T12:15:05;98948.38;;;10.34;100.00
25722;BME280;13578;53.450;15.496;2024-02-26T12:18:10;98931.06;;;10.33;100.00
25722;BME280;13578;53.450;15.496;2024-02-26T12:21:11;98918.13;;;10.26;100.00
25722;BME280;13578;53.450;15.496;2024-02-26T12:24:14;98939.78;;;10.47;100.00
25722;BME280;13578;53.450;15.496;2024-02-26T12:27:19;98943.59;;;10.54;100.00
25722;BME280;13578;53.450;15.496;2024-02-26T12:30:20;98914.31;;;10.37;100.00
25722;BME280;13578;53.450;15.496;2024-02-26T12:33:21;98927.53;;;10.59;100.00
25722;BME280;13578;53.450;15.496;2024-02-26T12:36:21;98938.03;;;10.64;100.00
25722;BME280;13578;53.450;15.496;2024-02-26T12:39:23;98954.38;;;10.74;100.00
25722;BME280;13578;53.450;15.496;2024-02-26T12:42:24;98924.72;;;10.51;100.00
25722;BME280;13578;53.450;15.496;2024-02-26T12:45:25;98951.97;;;10.71;100.00
25722;BME280;13578;53.450;15.496;2024-02-26T12:48:26;98955.22;;;10.48;100.00
25722;BME280;13578;53.450;15.496;2024-02-26T12:51:27;98969.13;;;10.73;100.00
25722;BME280;13578;53.450;15.496;2024-02-26T12:54:33;98958.75;;;10.85;100.00
25722;BME280;13578;53.450;15.496;2024-02-26T12:57:37;98959.09;;;10.82;100.00
25722;BME280;13578;53.450;15.496;2024-02-26T13:00:38;98958.59;;;10.86;100.00
25722;BME280;13578;53.450;15.496;2024-02-26T13:03:39;98953.53;;;10.73;100.00
25722;BME280;13578;53.450;15.496;2024-02-26T13:06:40;98952.22;;;10.59;100.00
25722;BME280;13578;53.450;15.496;2024-02-26T13:09:41;98963.25;;;10.68;100.00
25722;BME280;13578;53.450;15.496;2024-02-26T13:12:46;98940.47;;;10.67;100.00
25722;BME280;13578;53.450;15.496;2024-02-26T13:15:47;98949.97;;;10.81;100.00
25722;BME280;13578;53.450;15.496;2024-02-26T13:18:48;98944.13;;;10.76;100.00
25722;BME280;13578;53.450;15.496;2024-02-26T13:21:49;98927.91;;;10.91;100.00
25722;BME280;13578;53.450;15.496;2024-02-26T13:24:56;98916.56;;;10.86;100.00
25722;BME280;13578;53.450;15.496;2024-02-26T13:28:16;98878.66;;;10.89;100.00
25722;BME280;13578;53.450;15.496;2024-02-26T13:31:18;98878.31;;;10.84;100.00
25722;BME280;13578;53.450;15.496;2024-02-26T13:34:26;98885.47;;;10.77;100.00
25722;BME280;13578;53.450;15.496;2024-02-26T13:37:27;98896.06;;;10.72;100.00
25722;BME280;13578;53.450;15.496;2024-02-26T13:40:27;98888.09;;;10.60;100.00
25722;BME280;13578;53.450;15.496;2024-02-26T13:43:29;98901.34;;;10.65;100.00
25722;BME280;13578;53.450;15.496;2024-02-26T13:46:30;98919.53;;;10.66;100.00
25722;BME280;13578;53.450;15.496;2024-02-26T13:49:30;98909.63;;;10.73;100.00
25722;BME280;13578;53.450;15.496;2024-02-26T13:52:31;98912.53;;;10.72;100.00
25722;BME280;13578;53.450;15.496;2024-02-26T13:55:33;98934.16;;;10.75;100.00
25722;BME280;13578;53.450;15.496;2024-02-26T13:58:33;98951.34;;;10.77;100.00
25722;BME280;13578;53.450;15.496;2024-02-26T14:01:34;98956.47;;;10.80;100.00
25722;BME280;13578;53.450;15.496;2024-02-26T14:04:36;98977.13;;;10.84;100.00
25722;BME280;13578;53.450;15.496;2024-02-26T14:07:37;98988.81;;;10.86;100.00
25722;BME280;13578;53.450;15.496;2024-02-26T14:10:37;98998.16;;;10.75;100.00
25722;BME280;13578;53.450;15.496;2024-02-26T14:13:38;98994.56;;;10.57;100.00
25722;BME280;13578;53.450;15.496;2024-02-26T14:16:39;99006.94;;;10.79;100.00
25722;BME280;13578;53.450;15.496;2024-02-26T14:19:39;99000.28;;;10.63;100.00
25722;BME280;13578;53.450;15.496;2024-02-26T14:22:43;99002.63;;;10.58;100.00
25722;BME280;13578;53.450;15.496;2024-02-26T14:25:44;99007.50;;;10.64;100.00
25722;BME280;13578;53.450;15.496;2024-02-26T14:28:45;99014.13;;;10.62;100.00
25722;BME280;13578;53.450;15.496;2024-02-26T14:31:46;99017.75;;;10.44;100.00
25722;BME280;13578;53.450;15.496;2024-02-26T14:34:48;99025.75;;;10.38;100.00
25722;BME280;13578;53.450;15.496;2024-02-26T14:37:49;99023.44;;;10.33;100.00
25722;BME280;13578;53.450;15.496;2024-02-26T14:40:50;99033.31;;;10.26;100.00
25722;BME280;13578;53.450;15.496;2024-02-26T14:43:51;99019.09;;;10.12;100.00
25722;BME280;13578;53.450;15.496;2024-02-26T14:46:52;99028.22;;;10.13;100.00
25722;BME280;13578;53.450;15.496;2024-02-26T14:49:52;99035.47;;;10.04;100.00
25722;BME280;13578;53.450;15.496;2024-02-26T14:52:53;99036.34;;;10.05;100.00
25722;BME280;13578;53.450;15.496;2024-02-26T14:55:53;99025.78;;;10.10;100.00
25722;BME280;13578;53.450;15.496;2024-02-26T14:58:54;99038.19;;;10.04;100.00
25722;BME280;13578;53.450;15.496;2024-02-26T15:01:54;99036.53;;;9.93;100.00
25722;BME280;13578;53.450;15.496;2024-02-26T15:04:55;99051.34;;;10.00;100.00
25722;BME280;13578;53.450;15.496;2024-02-26T15:07:56;99063.09;;;9.93;100.00
25722;BME280;13578;53.450;15.496;2024-02-26T15:10:56;99066.91;;;9.82;100.00
25722;BME280;13578;53.450;15.496;2024-02-26T15:13:57;99063.38;;;9.90;100.00
25722;BME280;13578;53.450;15.496;2024-02-26T15:16:57;99064.56;;;9.87;100.00
25722;BME280;13578;53.450;15.496;2024-02-26T15:19:58;99068.81;;;9.72;100.00
25722;BME280;13578;53.450;15.496;2024-02-26T15:22:59;99080.16;;;9.77;100.00
25722;BME280;13578;53.450;15.496;2024-02-26T15:26:00;99080.78;;;9.70;100.00
25722;BME280;13578;53.450;15.496;2024-02-26T15:29:00;99086.56;;;9.67;100.00
25722;BME280;13578;53.450;15.496;2024-02-26T15:32:01;99093.34;;;9.63;100.00
25722;BME280;13578;53.450;15.496;2024-02-26T15:35:02;99090.47;;;9.55;100.00
25722;BME280;13578;53.450;15.496;2024-02-26T15:38:03;99106.38;;;9.42;100.00
25722;BME280;13578;53.450;15.496;2024-02-26T15:41:11;99100.63;;;9.45;100.00
25722;BME280;13578;53.450;15.496;2024-02-26T15:44:12;99112.03;;;9.30;100.00
25722;BME280;13578;53.450;15.496;2024-02-26T15:47:13;99117.97;;;9.26;100.00
25722;BME280;13578;53.450;15.496;2024-02-26T15:50:13;99112.19;;;9.29;100.00
25722;BME280;13578;53.450;15.496;2024-02-26T15:53:14;99113.94;;;9.20;100.00
25722;BME280;13578;53.450;15.496;2024-02-26T15:56:15;99116.97;;;9.17;100.00
25722;BME280;13578;53.450;15.496;2024-02-26T15:59:17;99121.84;;;9.03;100.00
25722;BME280;13578;53.450;15.496;2024-02-26T16:02:18;99135.28;;;8.97;100.00
25722;BME280;13578;53.450;15.496;2024-02-26T16:05:18;99140.44;;;9.00;100.00
25722;BME280;13578;53.450;15.496;2024-02-26T16:08:21;99128.66;;;8.80;100.00
25722;BME280;13578;53.450;15.496;2024-02-26T16:15:18;99135.56;;;8.84;100.00
25722;BME280;13578;53.450;15.496;2024-02-26T16:18:22;99149.66;;;8.79;100.00
25722;BME280;13578;53.450;15.496;2024-02-26T16:21:23;99149.22;;;8.74;100.00
25722;BME280;13578;53.450;15.496;2024-02-26T16:24:24;99154.84;;;8.72;100.00
25722;BME280;13578;53.450;15.496;2024-02-26T16:27:24;99148.75;;;8.49;100.00
25722;BME280;13578;53.450;15.496;2024-02-26T16:30:25;99144.16;;;8.50;100.00
25722;BME280;13578;53.450;15.496;2024-02-26T16:33:25;99150.22;;;8.53;100.00
25722;BME280;13578;53.450;15.496;2024-02-26T16:36:26;99151.84;;;8.35;100.00